Red Lodge, MT

7:42 PM MST on February 23, 2017 (GMT -0700)
Tipi Village Sub-Division | | Change Station
Active Advisory: Winter Weather Advisory

Elev 5920 ft 45.17 °N, 109.27 °W | Updated 1 minute ago

Snow
Snow
16.5 °F
Feels Like 16 °F
N
0.0
Wind Variable Wind from North
Gusts 0.0 mph

Today
High -- | Low -- °F
--% Chance of Precip.
Yesterday
High -- | Low -- °F
Precip. -- in
Pressure 29.90 in
Visibility 2.5 miles
Clouds Overcast 1800 ft
Windchill 16 °F
Dew Point 15 °F
Humidity 92%
Rainfall 0.00 in
Snow Depth Not available.
7:04 AM 5:56 PM
Waning Crescent, 7% visible
SPECI KCOD 240234Z AUTO 33009KT 2 1/2SM -SN BR OVC018 M06/M08 A2990 RMK AO2 CIG 012V023 P0000 FZRANO
Pressure 29.90 in
Visibility 2.5 miles
Clouds Overcast 1800 ft
Windchill 16 °F
Dew Point 15 °F
Humidity 92%
Rainfall 0.00 in
Snow Depth Not available.
7:04 AM 5:56 PM
Waning Crescent, 7% visible
SPECI KCOD 240234Z AUTO 33009KT 2 1/2SM -SN BR OVC018 M06/M08 A2990 RMK AO2 CIG 012V023 P0000 FZRANO

Get Your Daily Forecast Email!

Thanks for signing up!

Be on the lookout for a verification email in your inbox.

You'll start receiving the daily forecast at 8 AM.

×

10-Day Weather Forecast

Almanac

Astronomy

Feb. 23, 2017 Rise Set
Actual Time
Civil Twilight
Nautical Twilight
Astronomical Twilight
Moon
Length of Visible Light
Length of Day
Tomorrow will be .
, % of the Moon is Illuminated

Today's Extremes

State Highs State Lows

Community

WunderPhotos

Upload Photos

1,962,540 photos uploaded!

WunderBlog® & News

Nearby

Air Quality

  Air Quality AQ Index Pollutant
Not available.

Snow Depth

Station Depth Elevation

Earthquake Activity

City Distance Mag. Time & Date
Minimum magnitude displayed is 2.5.

Coastal Water Temperatures

Place Temperature

Stations

Nearby Weather Stations

Station Location Temp. Windchill Dew Point Humidity Wind Precip. Elev Updated Type
                   

Watches & Warnings

Winter Weather Advisory
Issued: 2:14 PM MST Feb. 23, 2017 – National Weather Service

... Winter Weather Advisory remains in effect until noon MST
Friday...

* impacts... poor travel conditions due to slick roads and limited
visibility. Cold and wet weather may be hazardous to Young
livestock. Any wet roadways will freeze up quickly after sunset
tonight.

* Timing... through tomorrow morning.

* Additional snow accumulation... around 2 inches, locally heavier
near the mountains.

Precautionary/preparedness actions...

A Winter Weather Advisory can be issued for a variety of winter
weather conditions such as light snow... blowing snow... sleet...
freezing rain... and extreme wind chills.